createdAt,value
2022-12-12T00:03:38.035Z,99837.66
2022-12-12T00:08:39.337Z,99836.88
2022-12-12T00:13:40.541Z,99843.38
2022-12-12T00:18:41.670Z,99849.63
2022-12-12T00:23:42.873Z,99845.81
2022-12-12T00:28:44.582Z,99857.47
2022-12-12T00:33:48.081Z,99848.72
2022-12-12T00:38:49.311Z,99847.91
2022-12-12T00:43:50.530Z,99848.72
2022-12-12T00:48:51.654Z,99849.25
2022-12-12T00:53:52.837Z,99855.97
2022-12-12T00:58:53.978Z,99860.13
2022-12-12T01:03:55.189Z,99859.13
2022-12-12T01:08:56.381Z,99859.34
2022-12-12T01:13:57.531Z,99864.28
2022-12-12T01:18:58.658Z,99869.75
2022-12-12T01:24:01.365Z,99874.63
2022-12-12T01:29:02.541Z,99883.69
2022-12-12T01:34:03.872Z,99881.66
2022-12-12T01:39:05.741Z,99892.00
2022-12-12T01:44:06.917Z,99885.28
2022-12-12T01:49:08.104Z,99886.03
2022-12-12T01:54:09.261Z,99892.25
2022-12-12T01:59:10.489Z,99889.66
2022-12-12T02:04:11.699Z,99897.97
2022-12-12T02:09:12.915Z,99886.81
2022-12-12T02:14:14.186Z,99892.78
2022-12-12T02:19:15.382Z,99898.75
2022-12-12T02:24:20.418Z,99888.09
2022-12-12T02:29:25.728Z,99892.72
2022-12-12T02:34:26.892Z,99894.41
2022-12-12T02:39:28.061Z,99894.09
2022-12-12T02:44:29.289Z,99895.59
2022-12-12T02:49:30.493Z,99884.97
2022-12-12T02:54:31.727Z,99886.19
2022-12-12T02:59:32.924Z,99877.44
2022-12-12T03:04:52.803Z,99889.81
2022-12-12T03:09:53.935Z,99880.63
2022-12-12T03:14:55.177Z,99891.09
2022-12-12T03:19:56.306Z,99888.91
2022-12-12T03:24:57.492Z,99889.94
2022-12-12T03:29:58.660Z,99891.16
2022-12-12T03:34:59.842Z,99889.84
2022-12-12T03:40:01.017Z,99892.88
2022-12-12T03:45:02.291Z,99894.13
2022-12-12T03:50:03.595Z,99897.06
2022-12-12T03:55:04.730Z,99905.03
2022-12-12T04:00:05.919Z,99911.31
2022-12-12T04:05:07.118Z,99900.69
2022-12-12T04:10:27.233Z,99911.22
2022-12-12T04:15:28.498Z,99908.09
2022-12-12T04:20:48.234Z,99911.47
2022-12-12T04:26:07.862Z,99913.19
2022-12-12T04:31:09.017Z,99926.09
2022-12-12T04:36:10.217Z,99923.16
2022-12-12T04:41:11.453Z,99933.97
2022-12-12T04:46:12.720Z,99937.75
2022-12-12T04:51:13.984Z,99939.78
2022-12-12T04:56:15.197Z,99940.03
2022-12-12T05:01:16.377Z,99933.41
2022-12-12T05:06:17.625Z,99947.34
2022-12-12T05:11:19.025Z,99950.59
2022-12-12T05:16:20.218Z,99946.31
2022-12-12T05:21:21.370Z,99942.41
2022-12-12T05:26:22.586Z,99953.63
2022-12-12T05:31:23.784Z,99945.34
2022-12-12T05:36:24.958Z,99952.53
2022-12-12T05:41:26.138Z,99955.13
2022-12-12T05:46:27.327Z,99956.56
2022-12-12T05:51:28.734Z,99963.75
2022-12-12T05:56:29.936Z,99955.44
2022-12-12T06:01:31.100Z,99962.19
2022-12-12T06:06:32.255Z,99964.78
2022-12-12T06:11:33.409Z,99967.34
2022-12-12T06:16:34.587Z,99971.72
2022-12-12T06:21:35.731Z,99975.31
2022-12-12T06:26:36.921Z,99967.00
2022-12-12T06:31:38.157Z,99976.19
2022-12-12T06:36:39.330Z,99981.81
2022-12-12T06:41:40.723Z,99982.81
2022-12-12T06:46:41.924Z,99985.84
2022-12-12T06:51:44.432Z,99987.28
2022-12-12T06:56:48.478Z,99993.47
2022-12-12T07:01:50.179Z,99995.03
2022-12-12T07:06:51.492Z,100002.53
2022-12-12T07:11:52.674Z,100002.75
2022-12-12T07:16:53.840Z,100014.53
2022-12-12T07:21:55.029Z,100012.63
2022-12-12T07:26:56.150Z,100011.38
2022-12-12T07:31:57.499Z,100023.56
2022-12-12T07:37:02.863Z,100025.59
2022-12-12T07:42:04.406Z,100024.47
2022-12-12T07:47:06.367Z,100026.50
2022-12-12T07:52:07.526Z,100019.50
2022-12-12T07:57:08.696Z,100023.84
2022-12-12T08:02:09.894Z,100030.88
2022-12-12T08:07:11.098Z,100044.84
2022-12-12T08:12:12.294Z,100035.75
2022-12-12T08:17:13.535Z,100042.13
2022-12-12T08:22:14.650Z,100050.66
2022-12-12T08:27:16.138Z,100059.38
2022-12-12T08:32:17.349Z,100051.81
2022-12-12T08:37:18.565Z,100053.91
2022-12-12T08:42:19.707Z,100061.78
2022-12-12T08:47:20.870Z,100069.22
2022-12-12T08:52:22.014Z,100071.63
2022-12-12T08:57:26.030Z,100070.22
2022-12-12T09:02:27.571Z,100070.94
2022-12-12T09:07:28.935Z,100075.44
2022-12-12T09:12:30.317Z,100080.16
2022-12-12T09:17:31.894Z,100081.97
2022-12-12T09:22:33.151Z,100083.19
2022-12-12T09:27:34.879Z,100053.81
2022-12-12T09:32:36.081Z,100089.19
2022-12-12T09:37:37.209Z,100086.03
2022-12-12T09:42:38.351Z,100085.13
2022-12-12T09:47:39.549Z,100088.25
2022-12-12T09:52:40.731Z,100093.31
2022-12-12T09:57:41.920Z,100088.34
2022-12-12T10:02:44.115Z,100099.34
2022-12-12T10:07:45.315Z,100096.09
2022-12-12T10:12:46.537Z,100085.41
2022-12-12T10:17:47.703Z,100084.81
2022-12-12T10:22:48.878Z,100082.50
2022-12-12T10:27:50.051Z,100081.56
2022-12-12T10:32:51.221Z,100082.72
2022-12-12T10:37:52.364Z,100064.72
2022-12-12T10:42:53.947Z,100059.00
2022-12-12T10:47:55.145Z,100061.44
2022-12-12T10:52:56.345Z,100060.44
2022-12-12T10:57:57.499Z,100061.28
2022-12-12T11:03:00.375Z,100050.47
2022-12-12T11:08:02.005Z,100051.16
2022-12-12T11:13:03.238Z,100033.66
2022-12-12T11:18:06.291Z,100036.44
2022-12-12T11:23:07.810Z,100028.72
2022-12-12T11:28:08.993Z,100027.22
2022-12-12T11:33:10.144Z,100025.56
2022-12-12T11:38:11.275Z,100026.28
2022-12-12T11:43:12.413Z,100019.84
2022-12-12T11:48:13.601Z,100015.34
2022-12-12T11:53:14.780Z,100010.03
2022-12-12T11:58:15.950Z,100007.78
2022-12-12T12:03:17.234Z,100006.63
2022-12-12T12:08:18.534Z,100005.13
2022-12-12T12:13:19.710Z,100009.22
2022-12-12T12:18:26.593Z,100004.09
2022-12-12T12:23:29.251Z,99999.59
2022-12-12T12:28:30.518Z,100001.25
2022-12-12T12:33:31.745Z,100000.94
2022-12-12T12:38:32.902Z,100002.19
2022-12-12T12:43:34.192Z,99995.88
2022-12-12T12:48:35.355Z,99991.31
2022-12-12T12:53:36.559Z,99986.72
2022-12-12T12:58:38.387Z,99977.22
2022-12-12T13:03:39.536Z,99976.47
2022-12-12T13:08:40.755Z,99974.97
2022-12-12T13:13:41.934Z,99970.25
2022-12-12T13:18:46.323Z,99973.38
2022-12-12T13:23:47.640Z,99978.50
2022-12-12T13:28:48.877Z,99971.47
2022-12-12T13:33:50.011Z,99976.13
2022-12-12T13:38:51.274Z,99976.00
2022-12-12T13:43:52.438Z,99977.63
2022-12-12T13:48:53.639Z,99977.25
2022-12-12T13:53:54.784Z,99986.44
2022-12-12T13:58:55.930Z,99979.31
2022-12-12T14:03:57.338Z,99973.81
2022-12-12T14:08:58.622Z,99976.91
2022-12-12T14:13:59.826Z,99972.34
2022-12-12T14:19:01.930Z,99979.16
2022-12-12T14:24:03.092Z,99976.06
2022-12-12T14:29:04.353Z,99969.78
2022-12-12T14:34:05.517Z,99981.50
2022-12-12T14:39:06.887Z,99973.41
2022-12-12T14:44:35.612Z,99977.84
2022-12-12T14:49:29.262Z,99983.13
2022-12-12T14:54:30.462Z,99988.63
2022-12-12T14:59:31.649Z,99987.13
2022-12-12T15:04:32.808Z,99991.13
2022-12-12T15:09:33.966Z,99987.72
2022-12-12T15:14:35.451Z,99999.41
2022-12-12T15:19:36.615Z,100003.84
2022-12-12T15:24:37.768Z,99996.94
2022-12-12T15:29:38.923Z,99998.78
2022-12-12T15:34:40.300Z,100015.09
2022-12-12T15:39:41.509Z,100004.56
2022-12-12T15:44:42.641Z,100020.44
2022-12-12T15:49:43.856Z,100028.97
2022-12-12T15:54:45.037Z,100045.63
2022-12-12T15:59:46.175Z,100035.84
2022-12-12T16:04:47.574Z,100041.47
2022-12-12T16:09:48.731Z,100035.66
2022-12-12T16:14:49.906Z,100049.44
2022-12-12T16:19:51.055Z,100049.09
2022-12-12T16:24:52.269Z,100046.63
2022-12-12T16:29:53.402Z,100048.00
2022-12-12T16:34:54.847Z,100041.91
2022-12-12T16:39:56.036Z,100051.91
2022-12-12T16:44:57.192Z,100042.94
2022-12-12T16:49:58.320Z,100037.09
2022-12-12T16:54:59.479Z,100038.88
2022-12-12T17:00:00.628Z,100053.56
2022-12-12T17:05:01.792Z,100057.81
2022-12-12T17:10:03.005Z,100061.38
2022-12-12T17:15:04.174Z,100056.09
2022-12-12T17:20:05.319Z,100057.69
2022-12-12T17:25:06.552Z,100059.66
2022-12-12T17:30:07.690Z,100059.31
2022-12-12T17:35:08.822Z,100053.59
2022-12-12T17:40:10.861Z,100041.97
2022-12-12T17:45:12.150Z,100034.22
2022-12-12T17:50:13.635Z,100035.66
2022-12-12T17:55:55.057Z,100036.56
2022-12-12T18:00:36.541Z,100042.16
2022-12-12T18:05:37.683Z,100037.94
2022-12-12T18:10:38.931Z,100041.25
2022-12-12T18:15:42.199Z,100039.09
2022-12-12T18:20:43.980Z,100048.09
2022-12-12T18:25:45.175Z,100050.75
2022-12-12T18:30:46.348Z,100056.31
2022-12-12T18:35:47.550Z,100057.28
2022-12-12T18:40:48.714Z,100054.03
2022-12-12T18:45:49.942Z,100049.13
2022-12-12T18:50:51.138Z,100048.75
2022-12-12T18:55:52.326Z,100037.81
2022-12-12T19:00:53.490Z,100030.16
2022-12-12T19:05:54.656Z,100035.88
2022-12-12T19:10:55.784Z,100039.53
2022-12-12T19:15:57.937Z,100044.03
2022-12-12T19:20:59.108Z,100045.97
2022-12-12T19:26:00.243Z,100039.97
2022-12-12T19:31:01.485Z,100038.03
2022-12-12T19:36:02.643Z,100048.38
2022-12-12T19:41:04.301Z,100044.09
2022-12-12T19:46:06.052Z,100044.53
2022-12-12T19:51:07.350Z,100045.38
2022-12-12T19:56:08.621Z,100043.25
2022-12-12T20:01:09.845Z,100043.53
2022-12-12T20:06:11.176Z,100043.94
2022-12-12T20:11:12.373Z,100048.72
2022-12-12T20:16:13.623Z,100061.06
2022-12-12T20:21:36.198Z,100055.94
2022-12-12T20:26:36.016Z,100059.22
2022-12-12T20:31:37.300Z,100060.16
2022-12-12T20:36:38.561Z,100059.59
2022-12-12T20:41:39.792Z,100058.19
2022-12-12T20:46:41.233Z,100054.84
2022-12-12T20:51:58.784Z,100058.59
2022-12-12T20:57:01.055Z,100066.53
2022-12-12T21:02:02.305Z,100055.06
2022-12-12T21:07:03.514Z,100062.78
2022-12-12T21:12:04.638Z,100058.66
2022-12-12T21:17:05.864Z,100054.91
2022-12-12T21:22:08.236Z,100062.88
2022-12-12T21:27:09.414Z,100063.31
2022-12-12T21:32:10.765Z,100061.34
2022-12-12T21:37:11.896Z,100071.00
2022-12-12T21:42:13.100Z,100063.59
2022-12-12T21:47:14.265Z,100064.00
2022-12-12T21:52:15.390Z,100073.09
2022-12-12T21:57:18.592Z,100066.03
2022-12-12T22:02:23.155Z,100068.06
2022-12-12T22:07:24.333Z,100058.63
2022-12-12T22:12:25.798Z,100061.63
2022-12-12T22:17:26.929Z,100070.09
2022-12-12T22:22:28.982Z,100072.50
2022-12-12T22:27:30.218Z,100075.34
2022-12-12T22:32:31.354Z,100073.63
2022-12-12T22:37:32.522Z,100069.47
2022-12-12T22:42:33.699Z,100069.88
2022-12-12T22:47:34.850Z,100069.50
2022-12-12T22:52:36.050Z,100058.47
2022-12-12T22:57:37.287Z,100055.66
2022-12-12T23:02:38.464Z,100051.50
2022-12-12T23:07:39.620Z,100054.06
2022-12-12T23:12:40.972Z,100054.31
2022-12-12T23:17:42.122Z,100043.88
2022-12-12T23:22:46.316Z,100041.47
2022-12-12T23:27:47.443Z,100031.41
2022-12-12T23:32:48.632Z,100024.13
2022-12-12T23:37:49.784Z,100024.13
2022-12-12T23:42:51.103Z,100020.50
2022-12-12T23:47:52.276Z,100017.97
2022-12-12T23:52:53.458Z,100016.66
2022-12-12T23:57:54.579Z,100005.19
